sensor_id;sensor_type;location;lat;lon;timestamp;pressure;altitude;pressure_sealevel;temperature;humidity
54918;BME280;40818;50.562;7.454;2024-02-28T00:06:23;97953.50;;;2.62;100.00
54918;BME280;40818;50.562;7.454;2024-02-28T00:16:27;97961.16;;;2.64;100.00
54918;BME280;40818;50.562;7.454;2024-02-28T00:26:33;97958.59;;;2.64;100.00
54918;BME280;40818;50.562;7.454;2024-02-28T00:36:36;97963.75;;;2.62;100.00
54918;BME280;40818;50.562;7.454;2024-02-28T00:46:42;97966.50;;;2.56;100.00
54918;BME280;40818;50.562;7.454;2024-02-28T00:56:46;97966.09;;;2.40;100.00
54918;BME280;40818;50.562;7.454;2024-02-28T01:06:52;97973.03;;;2.36;100.00
54918;BME280;40818;50.562;7.454;2024-02-28T01:16:55;97982.25;;;2.42;100.00
54918;BME280;40818;50.562;7.454;2024-02-28T01:27:01;97980.56;;;2.43;100.00
54918;BME280;40818;50.562;7.454;2024-02-28T01:37:05;97981.19;;;2.19;100.00
54918;BME280;40818;50.562;7.454;2024-02-28T01:47:11;97989.47;;;2.29;100.00
54918;BME280;40818;50.562;7.454;2024-02-28T01:57:14;97988.63;;;2.29;100.00
54918;BME280;40818;50.562;7.454;2024-02-28T02:07:20;97982.06;;;2.20;100.00
54918;BME280;40818;50.562;7.454;2024-02-28T02:17:24;97986.13;;;2.27;100.00
54918;BME280;40818;50.562;7.454;2024-02-28T02:27:30;97978.69;;;2.18;100.00
54918;BME280;40818;50.562;7.454;2024-02-28T02:37:33;97984.09;;;2.07;100.00
54918;BME280;40818;50.562;7.454;2024-02-28T02:47:39;97967.66;;;1.83;100.00
54918;BME280;40818;50.562;7.454;2024-02-28T02:57:44;97980.78;;;1.70;100.00
54918;BME280;40818;50.562;7.454;2024-02-28T03:07:50;97979.81;;;1.75;100.00
54918;BME280;40818;50.562;7.454;2024-02-28T03:17:53;97977.28;;;1.75;100.00
54918;BME280;40818;50.562;7.454;2024-02-28T03:27:59;97995.75;;;1.86;100.00
54918;BME280;40818;50.562;7.454;2024-02-28T03:38:03;97998.47;;;1.80;100.00
54918;BME280;40818;50.562;7.454;2024-02-28T03:48:09;98011.97;;;1.52;100.00
54918;BME280;40818;50.562;7.454;2024-02-28T03:58:13;98016.53;;;1.74;100.00
54918;BME280;40818;50.562;7.454;2024-02-28T04:08:19;98022.53;;;1.73;100.00
54918;BME280;40818;50.562;7.454;2024-02-28T04:18:22;98034.19;;;1.84;100.00
54918;BME280;40818;50.562;7.454;2024-02-28T04:28:28;98046.22;;;1.81;100.00
54918;BME280;40818;50.562;7.454;2024-02-28T04:38:31;98063.34;;;1.79;100.00
54918;BME280;40818;50.562;7.454;2024-02-28T04:48:37;98061.63;;;1.79;100.00
54918;BME280;40818;50.562;7.454;2024-02-28T04:58:41;98062.41;;;1.83;100.00
54918;BME280;40818;50.562;7.454;2024-02-28T05:08:47;98082.97;;;1.80;100.00
54918;BME280;40818;50.562;7.454;2024-02-28T05:18:50;98089.41;;;1.60;100.00
54918;BME280;40818;50.562;7.454;2024-02-28T05:28:56;98085.78;;;1.69;100.00
54918;BME280;40818;50.562;7.454;2024-02-28T05:39:00;98107.06;;;1.69;100.00
54918;BME280;40818;50.562;7.454;2024-02-28T05:49:08;98110.34;;;1.39;100.00
54918;BME280;40818;50.562;7.454;2024-02-28T05:59:11;98124.59;;;1.49;100.00
54918;BME280;40818;50.562;7.454;2024-02-28T06:09:18;98130.47;;;1.54;100.00
54918;BME280;40818;50.562;7.454;2024-02-28T06:19:21;98141.44;;;1.59;100.00
54918;BME280;40818;50.562;7.454;2024-02-28T06:29:27;98143.28;;;1.52;100.00
54918;BME280;40818;50.562;7.454;2024-02-28T06:39:31;98157.25;;;1.38;100.00
54918;BME280;40818;50.562;7.454;2024-02-28T06:49:37;98159.69;;;1.44;100.00
54918;BME280;40818;50.562;7.454;2024-02-28T06:59:40;98174.88;;;1.11;100.00
54918;BME280;40818;50.562;7.454;2024-02-28T07:09:46;98189.16;;;1.23;100.00
54918;BME280;40818;50.562;7.454;2024-02-28T07:19:50;98184.03;;;1.23;100.00
54918;BME280;40818;50.562;7.454;2024-02-28T07:29:56;98184.69;;;1.32;100.00
54918;BME280;40818;50.562;7.454;2024-02-28T07:39:59;98199.81;;;1.42;100.00
54918;BME280;40818;50.562;7.454;2024-02-28T07:50:07;98201.22;;;1.57;100.00
54918;BME280;40818;50.562;7.454;2024-02-28T08:00:13;98217.09;;;1.71;100.00
54918;BME280;40818;50.562;7.454;2024-02-28T08:10:21;98225.66;;;1.72;100.00
54918;BME280;40818;50.562;7.454;2024-02-28T08:20:24;98236.59;;;1.77;100.00
54918;BME280;40818;50.562;7.454;2024-02-28T08:30:33;98231.38;;;1.83;100.00
54918;BME280;40818;50.562;7.454;2024-02-28T08:40:36;98241.00;;;2.11;100.00
54918;BME280;40818;50.562;7.454;2024-02-28T08:50:42;98247.16;;;2.38;100.00
54918;BME280;40818;50.562;7.454;2024-02-28T09:00:46;98257.69;;;2.27;100.00
54918;BME280;40818;50.562;7.454;2024-02-28T09:10:52;98264.25;;;2.37;100.00
54918;BME280;40818;50.562;7.454;2024-02-28T09:20:56;98266.03;;;2.71;100.00
54918;BME280;40818;50.562;7.454;2024-02-28T09:31:02;98269.34;;;2.75;100.00
54918;BME280;40818;50.562;7.454;2024-02-28T09:41:06;98268.09;;;2.55;100.00
54918;BME280;40818;50.562;7.454;2024-02-28T09:51:13;98278.88;;;3.03;100.00
54918;BME280;40818;50.562;7.454;2024-02-28T10:01:19;98298.75;;;3.59;100.00
54918;BME280;40818;50.562;7.454;2024-02-28T10:11:27;98311.34;;;3.98;100.00
54918;BME280;40818;50.562;7.454;2024-02-28T10:21:30;98312.00;;;3.44;100.00
54918;BME280;40818;50.562;7.454;2024-02-28T10:31:37;98314.53;;;3.76;100.00
54918;BME280;40818;50.562;7.454;2024-02-28T10:41:41;98311.31;;;3.38;100.00
54918;BME280;40818;50.562;7.454;2024-02-28T10:51:49;98289.22;;;3.94;100.00
54918;BME280;40818;50.562;7.454;2024-02-28T11:01:52;98274.13;;;4.92;100.00
54918;BME280;40818;50.562;7.454;2024-02-28T11:11:58;98271.50;;;5.42;100.00
54918;BME280;40818;50.562;7.454;2024-02-28T11:22:02;98263.59;;;6.18;100.00
54918;BME280;40818;50.562;7.454;2024-02-28T11:32:09;98253.88;;;7.29;100.00
54918;BME280;40818;50.562;7.454;2024-02-28T11:42:15;98240.41;;;9.56;100.00
54918;BME280;40818;50.562;7.454;2024-02-28T11:52:21;98243.19;;;11.08;100.00
54918;BME280;40818;50.562;7.454;2024-02-28T12:02:25;98230.69;;;11.44;95.26
54918;BME280;40818;50.562;7.454;2024-02-28T12:12:33;98227.31;;;13.06;87.44
54918;BME280;40818;50.562;7.454;2024-02-28T12:22:36;98214.75;;;11.77;71.83
54918;BME280;40818;50.562;7.454;2024-02-28T12:32:42;98201.94;;;12.56;68.59
54918;BME280;40818;50.562;7.454;2024-02-28T12:42:46;98206.88;;;10.48;71.86
54918;BME280;40818;50.562;7.454;2024-02-28T12:52:52;98186.38;;;10.43;75.86
54918;BME280;40818;50.562;7.454;2024-02-28T13:02:56;98185.69;;;11.56;71.64
54918;BME280;40818;50.562;7.454;2024-02-28T13:13:02;98181.13;;;10.29;74.33
54918;BME280;40818;50.562;7.454;2024-02-28T13:23:06;98177.03;;;9.62;73.03
54918;BME280;40818;50.562;7.454;2024-02-28T13:33:13;98169.88;;;9.66;73.15
54918;BME280;40818;50.562;7.454;2024-02-28T13:43:16;98160.84;;;11.38;74.10
54918;BME280;40818;50.562;7.454;2024-02-28T13:53:23;98153.34;;;11.75;71.37
54918;BME280;40818;50.562;7.454;2024-02-28T14:03:28;98145.16;;;11.54;68.19
54918;BME280;40818;50.562;7.454;2024-02-28T14:13:34;98138.59;;;10.90;68.69
54918;BME280;40818;50.562;7.454;2024-02-28T14:23:38;98141.31;;;9.51;68.42
54918;BME280;40818;50.562;7.454;2024-02-28T14:33:44;98136.28;;;9.32;73.13
54918;BME280;40818;50.562;7.454;2024-02-28T14:43:48;98133.69;;;9.16;70.85
54918;BME280;40818;50.562;7.454;2024-02-28T14:53:54;98135.50;;;8.47;74.09
54918;BME280;40818;50.562;7.454;2024-02-28T15:03:57;98140.19;;;8.04;74.10
54918;BME280;40818;50.562;7.454;2024-02-28T15:14:04;98129.19;;;7.45;76.70
54918;BME280;40818;50.562;7.454;2024-02-28T15:24:07;98128.25;;;7.65;77.56
54918;BME280;40818;50.562;7.454;2024-02-28T15:34:13;98133.94;;;7.35;77.98
54918;BME280;40818;50.562;7.454;2024-02-28T15:44:17;98126.53;;;7.27;79.84
54918;BME280;40818;50.562;7.454;2024-02-28T15:54:23;98122.19;;;6.90;80.72
54918;BME280;40818;50.562;7.454;2024-02-28T16:04:27;98118.53;;;7.14;81.22
54918;BME280;40818;50.562;7.454;2024-02-28T16:14:33;98113.25;;;6.78;84.53
54918;BME280;40818;50.562;7.454;2024-02-28T16:24:37;98111.03;;;6.49;86.12
54918;BME280;40818;50.562;7.454;2024-02-28T16:34:43;98103.28;;;6.29;91.02
54918;BME280;40818;50.562;7.454;2024-02-28T16:44:46;98101.50;;;6.31;90.89
54918;BME280;40818;50.562;7.454;2024-02-28T16:54:52;98104.28;;;6.26;90.90
54918;BME280;40818;50.562;7.454;2024-02-28T17:04:56;98102.91;;;6.18;91.19
54918;BME280;40818;50.562;7.454;2024-02-28T17:15:02;98105.09;;;6.06;91.81
54918;BME280;40818;50.562;7.454;2024-02-28T17:25:06;98114.91;;;5.96;92.01
54918;BME280;40818;50.562;7.454;2024-02-28T17:35:13;98112.22;;;5.77;92.98
54918;BME280;40818;50.562;7.454;2024-02-28T17:45:17;98090.97;;;5.72;92.46
54918;BME280;40818;50.562;7.454;2024-02-28T17:55:23;98090.72;;;5.56;93.55
54918;BME280;40818;50.562;7.454;2024-02-28T18:05:28;98086.19;;;5.63;93.47
54918;BME280;40818;50.562;7.454;2024-02-28T18:15:34;98084.56;;;5.60;93.16
54918;BME280;40818;50.562;7.454;2024-02-28T18:25:38;98091.69;;;5.54;93.01
54918;BME280;40818;50.562;7.454;2024-02-28T18:35:44;98083.41;;;5.45;93.36
54918;BME280;40818;50.562;7.454;2024-02-28T18:45:48;98081.88;;;5.41;93.90
54918;BME280;40818;50.562;7.454;2024-02-28T18:55:54;98074.81;;;5.46;94.00
54918;BME280;40818;50.562;7.454;2024-02-28T19:05:57;98074.13;;;5.41;94.29
54918;BME280;40818;50.562;7.454;2024-02-28T19:16:05;98078.53;;;5.39;94.28
54918;BME280;40818;50.562;7.454;2024-02-28T19:26:08;98061.84;;;5.27;93.98
54918;BME280;40818;50.562;7.454;2024-02-28T19:36:14;98065.44;;;5.22;92.76
54918;BME280;40818;50.562;7.454;2024-02-28T19:46:18;98076.28;;;5.08;93.37
54918;BME280;40818;50.562;7.454;2024-02-28T19:56:24;98073.56;;;4.89;94.04
54918;BME280;40818;50.562;7.454;2024-02-28T20:06:28;98069.06;;;4.70;95.13
54918;BME280;40818;50.562;7.454;2024-02-28T20:16:34;98071.50;;;4.51;96.34
54918;BME280;40818;50.562;7.454;2024-02-28T20:26:38;98071.06;;;4.38;98.00
54918;BME280;40818;50.562;7.454;2024-02-28T20:36:44;98055.16;;;4.27;99.68
54918;BME280;40818;50.562;7.454;2024-02-28T20:46:48;98070.00;;;4.19;100.00
54918;BME280;40818;50.562;7.454;2024-02-28T20:56:54;98058.28;;;4.12;100.00
54918;BME280;40818;50.562;7.454;2024-02-28T21:06:57;98055.19;;;4.02;100.00
54918;BME280;40818;50.562;7.454;2024-02-28T21:17:03;98045.81;;;3.74;100.00
54918;BME280;40818;50.562;7.454;2024-02-28T21:27:07;98041.94;;;3.62;100.00
54918;BME280;40818;50.562;7.454;2024-02-28T21:37:13;98031.94;;;3.53;100.00
54918;BME280;40818;50.562;7.454;2024-02-28T21:47:17;98027.31;;;3.37;100.00
54918;BME280;40818;50.562;7.454;2024-02-28T21:57:23;98020.81;;;3.27;100.00
54918;BME280;40818;50.562;7.454;2024-02-28T22:07:26;98012.41;;;3.22;100.00
54918;BME280;40818;50.562;7.454;2024-02-28T22:17:33;98004.19;;;3.11;100.00
54918;BME280;40818;50.562;7.454;2024-02-28T22:27:36;97992.53;;;3.00;100.00
54918;BME280;40818;50.562;7.454;2024-02-28T22:37:42;97983.34;;;2.93;100.00
54918;BME280;40818;50.562;7.454;2024-02-28T22:47:46;97986.47;;;2.75;100.00
54918;BME280;40818;50.562;7.454;2024-02-28T22:57:52;97962.84;;;2.65;100.00
54918;BME280;40818;50.562;7.454;2024-02-28T23:07:55;97960.38;;;2.60;100.00
54918;BME280;40818;50.562;7.454;2024-02-28T23:18:01;97972.63;;;2.50;100.00
54918;BME280;40818;50.562;7.454;2024-02-28T23:28:05;97961.47;;;2.23;100.00
54918;BME280;40818;50.562;7.454;2024-02-28T23:38:11;97943.69;;;2.17;100.00
54918;BME280;40818;50.562;7.454;2024-02-28T23:48:15;97948.81;;;2.17;100.00
54918;BME280;40818;50.562;7.454;2024-02-28T23:58:21;97926.81;;;2.10;100.00
